BAW9026 LWSK-LTFJ
Flight info
| Callsign | BAW9026 |
|---|---|
| Flight time | 1h 5m |
| Altitude | 37000 |
| Route | SIN2D SIN T215 VELBA P127 ROVDO N739 ADORU UM19 IBODU IBOD1H |
| Aircraft | A21N/M-SDE3FGIJ1LRWXYZ/SB1G1 |
Departure
| Time | 2026-05-09 14:37 |
|---|---|
| Airport | Skopje International Airport (LWSK) |
Arrival
| Time | 2026-05-09 15:42 |
|---|---|
| Airport | Istanbul Sabiha Gökçen International Airport (LTFJ) |
| Time | Latitude | Longitude | Altitude | Speed | Heading |
|---|---|---|---|---|---|
| 2026-05-09 14:12 | 41.96031 | 21.62600 | 799 ft | 0 kts | 76° |
| 2026-05-09 14:27 | 41.96028 | 21.62579 | 798 ft | 4 kts | 89° |
| 2026-05-09 14:27 | 41.96034 | 21.62547 | 798 ft | 4 kts | 130° |
| 2026-05-09 14:28 | 41.96053 | 21.62530 | 798 ft | 2 kts | 166° |
| 2026-05-09 14:28 | 41.96054 | 21.62530 | 798 ft | 4 kts | 166° |
| 2026-05-09 14:31 | 41.96046 | 21.62532 | 798 ft | 2 kts | 166° |
| 2026-05-09 14:32 | 41.96023 | 21.62521 | 798 ft | 5 kts | 229° |
| 2026-05-09 14:32 | 41.96001 | 21.62478 | 797 ft | 7 kts | 204° |
| 2026-05-09 14:32 | 41.95949 | 21.62492 | 797 ft | 9 kts | 168° |
| 2026-05-09 14:32 | 41.95889 | 21.62510 | 796 ft | 9 kts | 167° |
| 2026-05-09 14:33 | 41.95823 | 21.62530 | 795 ft | 10 kts | 166° |
| 2026-05-09 14:33 | 41.95747 | 21.62557 | 793 ft | 12 kts | 165° |
| 2026-05-09 14:33 | 41.95668 | 21.62586 | 791 ft | 12 kts | 165° |
| 2026-05-09 14:33 | 41.95583 | 21.62617 | 791 ft | 14 kts | 165° |
| 2026-05-09 14:34 | 41.95486 | 21.62652 | 790 ft | 16 kts | 165° |
| 2026-05-09 14:34 | 41.95408 | 21.62680 | 789 ft | 12 kts | 165° |
| 2026-05-09 14:34 | 41.95322 | 21.62711 | 787 ft | 14 kts | 165° |
| 2026-05-09 14:34 | 41.95234 | 21.62741 | 785 ft | 7 kts | 166° |
| 2026-05-09 14:35 | 41.95177 | 21.62753 | 784 ft | 9 kts | 192° |
| 2026-05-09 14:35 | 41.95137 | 21.62676 | 784 ft | 12 kts | 253° |
| 2026-05-09 14:35 | 41.95114 | 21.62557 | 785 ft | 10 kts | 256° |
| 2026-05-09 14:35 | 41.95138 | 21.62501 | 786 ft | 9 kts | 338° |
| 2026-05-09 14:36 | 41.95162 | 21.62492 | 786 ft | 2 kts | 347° |
| 2026-05-09 14:36 | 41.95165 | 21.62491 | 786 ft | 0 kts | 347° |
| 2026-05-09 14:36 | 41.95339 | 21.62434 | 786 ft | 65 kts | 345° |
| 2026-05-09 14:36 | 41.96012 | 21.62197 | 793 ft | 132 kts | 345° |
| 2026-05-09 14:37 | 41.97001 | 21.61849 | 1114 ft | 146 kts | 343° |
| 2026-05-09 14:37 | 41.98015 | 21.61502 | 1543 ft | 156 kts | 343° |
| 2026-05-09 14:37 | 41.99067 | 21.61147 | 2193 ft | 161 kts | 345° |
| 2026-05-09 14:37 | 42.00209 | 21.60761 | 2769 ft | 177 kts | 346° |
| 2026-05-09 14:38 | 42.01485 | 21.60706 | 3501 ft | 191 kts | 13° |
| 2026-05-09 14:38 | 42.02608 | 21.61687 | 4468 ft | 201 kts | 47° |
| 2026-05-09 14:38 | 42.03111 | 21.63441 | 5492 ft | 208 kts | 83° |
| 2026-05-09 14:38 | 42.02736 | 21.65334 | 6476 ft | 217 kts | 120° |
| 2026-05-09 14:39 | 42.02043 | 21.67145 | 7420 ft | 219 kts | 99° |
| 2026-05-09 14:39 | 42.02036 | 21.69208 | 8196 ft | 232 kts | 84° |
| 2026-05-09 14:39 | 42.02058 | 21.71527 | 8688 ft | 261 kts | 89° |
| 2026-05-09 14:39 | 42.01989 | 21.74074 | 9267 ft | 283 kts | 91° |
| 2026-05-09 14:40 | 42.01872 | 21.76787 | 10058 ft | 296 kts | 92° |
| 2026-05-09 14:40 | 42.01726 | 21.79595 | 10655 ft | 316 kts | 92° |
| 2026-05-09 14:40 | 42.01546 | 21.82679 | 11166 ft | 338 kts | 93° |
| 2026-05-09 14:40 | 42.01353 | 21.85919 | 11708 ft | 356 kts | 93° |
| 2026-05-09 14:41 | 42.01149 | 21.89278 | 12527 ft | 364 kts | 93° |
| 2026-05-09 14:41 | 42.00941 | 21.92635 | 13398 ft | 369 kts | 94° |
| 2026-05-09 14:41 | 42.00723 | 21.96099 | 14246 ft | 373 kts | 94° |
| 2026-05-09 14:41 | 42.00500 | 21.99601 | 15035 ft | 378 kts | 94° |
| 2026-05-09 14:42 | 42.00272 | 22.03152 | 15806 ft | 383 kts | 94° |
| 2026-05-09 14:42 | 42.00042 | 22.06738 | 16554 ft | 388 kts | 94° |
| 2026-05-09 14:42 | 41.99806 | 22.10384 | 17316 ft | 393 kts | 94° |
| 2026-05-09 14:42 | 41.99568 | 22.14067 | 18052 ft | 398 kts | 94° |
| 2026-05-09 14:43 | 41.99324 | 22.17805 | 18730 ft | 403 kts | 94° |
| 2026-05-09 14:43 | 41.99076 | 22.21572 | 19369 ft | 408 kts | 94° |
| 2026-05-09 14:43 | 41.98818 | 22.25402 | 19989 ft | 413 kts | 94° |
| 2026-05-09 14:43 | 41.98556 | 22.29273 | 20613 ft | 418 kts | 94° |
| 2026-05-09 14:44 | 41.98299 | 22.33199 | 21235 ft | 424 kts | 94° |
| 2026-05-09 14:44 | 41.98069 | 22.37163 | 21849 ft | 428 kts | 92° |
| 2026-05-09 14:44 | 41.97957 | 22.41188 | 22473 ft | 433 kts | 91° |
| 2026-05-09 14:44 | 41.97852 | 22.45255 | 23082 ft | 438 kts | 91° |
| 2026-05-09 14:45 | 41.97746 | 22.49363 | 23658 ft | 443 kts | 91° |
| 2026-05-09 14:45 | 41.97637 | 22.53534 | 24140 ft | 447 kts | 91° |
| 2026-05-09 14:45 | 41.97525 | 22.57677 | 24630 ft | 451 kts | 91° |
| 2026-05-09 14:45 | 41.97408 | 22.61905 | 25148 ft | 454 kts | 91° |
| 2026-05-09 14:46 | 41.97292 | 22.66157 | 25644 ft | 458 kts | 91° |
| 2026-05-09 14:46 | 41.97172 | 22.70447 | 26134 ft | 461 kts | 91° |
| 2026-05-09 14:46 | 41.97050 | 22.74766 | 26615 ft | 465 kts | 91° |
| 2026-05-09 14:46 | 41.96927 | 22.79125 | 27081 ft | 468 kts | 91° |
| 2026-05-09 14:47 | 41.96799 | 22.83514 | 27547 ft | 471 kts | 91° |
| 2026-05-09 14:47 | 41.96696 | 22.87928 | 27991 ft | 474 kts | 89° |
| 2026-05-09 14:47 | 41.96854 | 22.92367 | 28432 ft | 476 kts | 85° |
| 2026-05-09 14:47 | 41.97082 | 22.96819 | 28880 ft | 479 kts | 85° |
| 2026-05-09 14:48 | 41.97314 | 23.01296 | 29299 ft | 482 kts | 85° |
| 2026-05-09 14:48 | 41.97547 | 23.05792 | 29716 ft | 485 kts | 85° |
| 2026-05-09 14:48 | 41.97779 | 23.10323 | 30175 ft | 486 kts | 85° |
| 2026-05-09 14:48 | 41.98003 | 23.14793 | 30641 ft | 485 kts | 85° |
| 2026-05-09 14:49 | 41.98227 | 23.19351 | 31136 ft | 483 kts | 85° |
| 2026-05-09 14:49 | 41.98447 | 23.23799 | 31594 ft | 482 kts | 85° |
| 2026-05-09 14:49 | 41.98668 | 23.28298 | 32064 ft | 481 kts | 85° |
| 2026-05-09 14:49 | 41.98887 | 23.32785 | 32537 ft | 480 kts | 85° |
| 2026-05-09 14:50 | 41.99102 | 23.37260 | 33004 ft | 479 kts | 85° |
| 2026-05-09 14:50 | 41.99316 | 23.41723 | 33456 ft | 478 kts | 85° |
| 2026-05-09 14:50 | 41.99528 | 23.46182 | 33880 ft | 476 kts | 85° |
| 2026-05-09 14:50 | 41.99735 | 23.50623 | 34229 ft | 476 kts | 85° |
| 2026-05-09 14:51 | 41.99946 | 23.55063 | 34512 ft | 477 kts | 85° |
| 2026-05-09 14:51 | 42.00154 | 23.59517 | 34827 ft | 477 kts | 85° |
| 2026-05-09 14:51 | 42.00361 | 23.63960 | 35128 ft | 477 kts | 85° |
| 2026-05-09 14:51 | 42.00564 | 23.68419 | 35415 ft | 477 kts | 85° |
| 2026-05-09 14:52 | 42.00761 | 23.72789 | 35709 ft | 477 kts | 85° |
| 2026-05-09 14:52 | 42.00961 | 23.77270 | 35973 ft | 478 kts | 85° |
| 2026-05-09 14:52 | 42.01157 | 23.81729 | 36242 ft | 478 kts | 85° |
| 2026-05-09 14:52 | 42.01353 | 23.86188 | 36514 ft | 478 kts | 85° |
| 2026-05-09 14:53 | 42.01547 | 23.90653 | 36756 ft | 478 kts | 85° |
| 2026-05-09 14:53 | 42.01739 | 23.95127 | 36991 ft | 479 kts | 85° |
| 2026-05-09 14:53 | 42.02119 | 24.04075 | 37069 ft | 478 kts | 85° |
| 2026-05-09 14:54 | 42.02493 | 24.13006 | 37030 ft | 478 kts | 85° |
| 2026-05-09 14:54 | 42.02853 | 24.21932 | 37029 ft | 478 kts | 85° |
| 2026-05-09 14:55 | 42.03208 | 24.30846 | 36992 ft | 478 kts | 85° |
| 2026-05-09 14:55 | 42.03561 | 24.39774 | 37012 ft | 478 kts | 85° |
| 2026-05-09 14:56 | 42.03901 | 24.48633 | 37008 ft | 477 kts | 85° |
| 2026-05-09 14:56 | 42.04238 | 24.57553 | 37006 ft | 477 kts | 85° |
| 2026-05-09 14:57 | 42.04571 | 24.66490 | 37000 ft | 478 kts | 85° |
| 2026-05-09 14:57 | 42.04895 | 24.75416 | 36989 ft | 477 kts | 85° |
| 2026-05-09 14:58 | 42.05212 | 24.84341 | 36991 ft | 477 kts | 85° |
| 2026-05-09 14:58 | 42.04778 | 24.93259 | 36992 ft | 479 kts | 97° |
| 2026-05-09 14:59 | 42.03865 | 25.02069 | 36991 ft | 479 kts | 97° |
| 2026-05-09 14:59 | 42.02955 | 25.10985 | 37000 ft | 478 kts | 97° |
| 2026-05-09 15:00 | 42.02067 | 25.19795 | 36991 ft | 477 kts | 97° |
| 2026-05-09 15:00 | 42.01167 | 25.28641 | 36999 ft | 477 kts | 97° |
| 2026-05-09 15:01 | 41.99792 | 25.41871 | 36984 ft | 476 kts | 97° |
| 2026-05-09 15:02 | 41.98866 | 25.50700 | 37006 ft | 476 kts | 97° |
| 2026-05-09 15:02 | 41.97932 | 25.59493 | 37010 ft | 476 kts | 97° |
| 2026-05-09 15:03 | 41.96998 | 25.68294 | 37009 ft | 476 kts | 97° |
| 2026-05-09 15:03 | 41.96041 | 25.77090 | 37004 ft | 475 kts | 98° |
| 2026-05-09 15:04 | 41.95091 | 25.85875 | 37004 ft | 474 kts | 97° |
| 2026-05-09 15:06 | 41.91239 | 26.20922 | 37012 ft | 474 kts | 98° |
| 2026-05-09 15:06 | 41.90240 | 26.29634 | 37010 ft | 473 kts | 98° |
| 2026-05-09 15:07 | 41.89239 | 26.38385 | 37004 ft | 473 kts | 98° |
| 2026-05-09 15:07 | 41.88258 | 26.47070 | 37006 ft | 473 kts | 98° |
| 2026-05-09 15:08 | 41.86877 | 26.55694 | 36992 ft | 473 kts | 111° |
| 2026-05-09 15:08 | 41.83476 | 26.63002 | 37011 ft | 470 kts | 131° |
| 2026-05-09 15:08 | 41.81333 | 26.66410 | 37009 ft | 470 kts | 131° |
| 2026-05-09 15:10 | 41.65226 | 26.92222 | 37006 ft | 470 kts | 131° |
| 2026-05-09 15:11 | 41.61067 | 26.98881 | 37001 ft | 470 kts | 131° |
| 2026-05-09 15:11 | 41.56872 | 27.05610 | 37008 ft | 469 kts | 130° |
| 2026-05-09 15:12 | 41.55039 | 27.09206 | 37006 ft | 470 kts | 119° |
| 2026-05-09 15:12 | 41.53613 | 27.13140 | 37018 ft | 471 kts | 114° |
| 2026-05-09 15:12 | 41.50983 | 27.21150 | 37017 ft | 471 kts | 114° |
| 2026-05-09 15:13 | 41.48320 | 27.29154 | 37009 ft | 471 kts | 114° |
| 2026-05-09 15:13 | 41.45643 | 27.37114 | 37017 ft | 471 kts | 115° |
| 2026-05-09 15:14 | 41.42958 | 27.45078 | 37021 ft | 471 kts | 115° |
| 2026-05-09 15:14 | 41.40265 | 27.53041 | 37018 ft | 470 kts | 115° |
| 2026-05-09 15:15 | 41.37602 | 27.60912 | 37018 ft | 469 kts | 114° |
| 2026-05-09 15:15 | 41.36528 | 27.65001 | 37003 ft | 469 kts | 103° |
| 2026-05-09 15:15 | 41.36055 | 27.69283 | 37007 ft | 468 kts | 91° |
| 2026-05-09 15:16 | 41.36558 | 27.77895 | 37025 ft | 467 kts | 82° |
| 2026-05-09 15:16 | 41.36935 | 27.82186 | 36870 ft | 462 kts | 82° |
| 2026-05-09 15:16 | 41.37292 | 27.86443 | 36514 ft | 464 kts | 83° |
| 2026-05-09 15:17 | 41.37633 | 27.90725 | 36234 ft | 465 kts | 83° |
| 2026-05-09 15:17 | 41.37965 | 27.95011 | 35976 ft | 465 kts | 83° |
| 2026-05-09 15:17 | 41.38289 | 27.99292 | 35605 ft | 463 kts | 84° |
| 2026-05-09 15:17 | 41.38357 | 28.03573 | 34992 ft | 463 kts | 94° |
| 2026-05-09 15:18 | 41.37880 | 28.07806 | 34324 ft | 461 kts | 101° |
| 2026-05-09 15:18 | 41.37251 | 28.11993 | 33581 ft | 461 kts | 102° |
| 2026-05-09 15:18 | 41.36606 | 28.16183 | 32801 ft | 463 kts | 102° |
| 2026-05-09 15:18 | 41.35976 | 28.20325 | 32116 ft | 463 kts | 101° |
| 2026-05-09 15:19 | 41.35338 | 28.24580 | 31470 ft | 462 kts | 101° |
| 2026-05-09 15:19 | 41.34716 | 28.28771 | 30864 ft | 460 kts | 101° |
| 2026-05-09 15:19 | 41.34095 | 28.32939 | 30300 ft | 458 kts | 101° |
| 2026-05-09 15:19 | 41.33482 | 28.37037 | 29670 ft | 456 kts | 101° |
| 2026-05-09 15:20 | 41.32864 | 28.41165 | 29011 ft | 454 kts | 101° |
| 2026-05-09 15:20 | 41.31632 | 28.49354 | 27786 ft | 448 kts | 102° |
| 2026-05-09 15:20 | 41.31028 | 28.53396 | 27213 ft | 445 kts | 101° |
| 2026-05-09 15:21 | 41.30734 | 28.57479 | 26643 ft | 442 kts | 90° |
| 2026-05-09 15:21 | 41.30737 | 28.61540 | 26171 ft | 437 kts | 90° |
| 2026-05-09 15:21 | 41.30757 | 28.65570 | 25715 ft | 432 kts | 90° |
| 2026-05-09 15:21 | 41.30772 | 28.69542 | 25284 ft | 426 kts | 90° |
| 2026-05-09 15:22 | 41.30782 | 28.73455 | 25024 ft | 422 kts | 90° |
| 2026-05-09 15:22 | 41.30785 | 28.77365 | 24969 ft | 422 kts | 90° |
| 2026-05-09 15:22 | 41.30781 | 28.81213 | 24595 ft | 415 kts | 90° |
| 2026-05-09 15:22 | 41.30777 | 28.85096 | 23689 ft | 422 kts | 90° |
| 2026-05-09 15:23 | 41.30773 | 28.89022 | 22920 ft | 422 kts | 90° |
| 2026-05-09 15:23 | 41.30775 | 28.92891 | 22466 ft | 414 kts | 90° |
| 2026-05-09 15:23 | 41.30772 | 28.96645 | 22092 ft | 404 kts | 91° |
| 2026-05-09 15:23 | 41.30766 | 29.00383 | 21714 ft | 399 kts | 91° |
| 2026-05-09 15:24 | 41.30758 | 29.04004 | 21327 ft | 394 kts | 91° |
| 2026-05-09 15:24 | 41.30751 | 29.07612 | 20943 ft | 388 kts | 91° |
| 2026-05-09 15:24 | 41.30743 | 29.11187 | 20559 ft | 383 kts | 91° |
| 2026-05-09 15:24 | 41.30733 | 29.14724 | 20169 ft | 379 kts | 91° |
| 2026-05-09 15:25 | 41.30722 | 29.18205 | 19789 ft | 376 kts | 91° |
| 2026-05-09 15:25 | 41.30713 | 29.21671 | 19411 ft | 373 kts | 91° |
| 2026-05-09 15:25 | 41.30724 | 29.25074 | 19132 ft | 364 kts | 90° |
| 2026-05-09 15:26 | 41.30782 | 29.31658 | 18505 ft | 351 kts | 90° |
| 2026-05-09 15:26 | 41.30806 | 29.34893 | 18062 ft | 349 kts | 90° |
| 2026-05-09 15:26 | 41.30828 | 29.38109 | 17616 ft | 346 kts | 90° |
| 2026-05-09 15:26 | 41.30968 | 29.41281 | 17177 ft | 344 kts | 79° |
| 2026-05-09 15:27 | 41.31837 | 29.44211 | 16710 ft | 340 kts | 56° |
| 2026-05-09 15:27 | 41.33461 | 29.46439 | 16255 ft | 334 kts | 33° |
| 2026-05-09 15:27 | 41.35399 | 29.48117 | 15827 ft | 331 kts | 30° |
| 2026-05-09 15:27 | 41.37353 | 29.49749 | 15405 ft | 329 kts | 31° |
| 2026-05-09 15:28 | 41.39266 | 29.51406 | 15003 ft | 328 kts | 32° |
| 2026-05-09 15:28 | 41.41160 | 29.53089 | 14609 ft | 326 kts | 32° |
| 2026-05-09 15:28 | 41.43035 | 29.54785 | 14216 ft | 324 kts | 32° |
| 2026-05-09 15:28 | 41.44890 | 29.56484 | 13813 ft | 322 kts | 34° |
| 2026-05-09 15:29 | 41.46485 | 29.58509 | 13346 ft | 323 kts | 54° |
| 2026-05-09 15:29 | 41.47355 | 29.61241 | 12876 ft | 321 kts | 81° |
| 2026-05-09 15:29 | 41.47270 | 29.64164 | 12407 ft | 316 kts | 106° |
| 2026-05-09 15:29 | 41.46501 | 29.66904 | 11845 ft | 315 kts | 122° |
| 2026-05-09 15:30 | 41.45143 | 29.69122 | 11467 ft | 305 kts | 143° |
| 2026-05-09 15:30 | 41.43359 | 29.70526 | 11099 ft | 295 kts | 163° |
| 2026-05-09 15:30 | 41.41383 | 29.71047 | 10708 ft | 287 kts | 180° |
| 2026-05-09 15:30 | 41.39406 | 29.70997 | 10334 ft | 283 kts | 186° |
| 2026-05-09 15:31 | 41.37448 | 29.70858 | 9976 ft | 281 kts | 186° |
| 2026-05-09 15:31 | 41.35499 | 29.70740 | 9666 ft | 280 kts | 186° |
| 2026-05-09 15:31 | 41.33553 | 29.70642 | 9390 ft | 279 kts | 185° |
| 2026-05-09 15:31 | 41.31609 | 29.70555 | 9117 ft | 278 kts | 185° |
| 2026-05-09 15:32 | 41.29679 | 29.70476 | 8859 ft | 277 kts | 185° |
| 2026-05-09 15:32 | 41.27756 | 29.70403 | 8436 ft | 278 kts | 185° |
| 2026-05-09 15:32 | 41.25827 | 29.70330 | 8056 ft | 276 kts | 185° |
| 2026-05-09 15:32 | 41.23939 | 29.70260 | 7880 ft | 266 kts | 185° |
| 2026-05-09 15:33 | 41.22130 | 29.70194 | 7736 ft | 255 kts | 185° |
| 2026-05-09 15:33 | 41.20396 | 29.70132 | 7590 ft | 243 kts | 185° |
| 2026-05-09 15:33 | 41.18733 | 29.70073 | 7309 ft | 237 kts | 186° |
| 2026-05-09 15:33 | 41.17326 | 29.70021 | 7056 ft | 235 kts | 186° |
| 2026-05-09 15:34 | 41.15702 | 29.69961 | 6736 ft | 234 kts | 186° |
| 2026-05-09 15:34 | 41.14076 | 29.69901 | 6422 ft | 233 kts | 186° |
| 2026-05-09 15:34 | 41.12459 | 29.69842 | 6123 ft | 232 kts | 186° |
| 2026-05-09 15:34 | 41.10848 | 29.69783 | 5835 ft | 231 kts | 185° |
| 2026-05-09 15:35 | 41.09239 | 29.69723 | 5573 ft | 231 kts | 185° |
| 2026-05-09 15:35 | 41.07639 | 29.69665 | 5338 ft | 230 kts | 185° |
| 2026-05-09 15:35 | 41.06044 | 29.69607 | 5123 ft | 229 kts | 185° |
| 2026-05-09 15:35 | 41.04484 | 29.69299 | 4897 ft | 224 kts | 204° |
| 2026-05-09 15:36 | 41.03242 | 29.68126 | 4711 ft | 221 kts | 231° |
| 2026-05-09 15:36 | 41.02417 | 29.66412 | 4480 ft | 221 kts | 241° |
| 2026-05-09 15:36 | 41.01666 | 29.64643 | 4208 ft | 220 kts | 240° |
| 2026-05-09 15:36 | 41.00904 | 29.62883 | 3911 ft | 221 kts | 240° |
| 2026-05-09 15:37 | 41.00128 | 29.61122 | 3651 ft | 221 kts | 239° |
| 2026-05-09 15:37 | 40.99364 | 29.59402 | 3477 ft | 210 kts | 239° |
| 2026-05-09 15:37 | 40.98647 | 29.57798 | 3460 ft | 197 kts | 240° |
| 2026-05-09 15:37 | 40.97961 | 29.56234 | 3474 ft | 196 kts | 242° |
| 2026-05-09 15:38 | 40.97385 | 29.54664 | 3513 ft | 186 kts | 248° |
| 2026-05-09 15:38 | 40.96861 | 29.53116 | 3546 ft | 180 kts | 244° |
| 2026-05-09 15:38 | 40.96321 | 29.51617 | 3527 ft | 181 kts | 244° |
| 2026-05-09 15:38 | 40.95783 | 29.50144 | 3385 ft | 179 kts | 244° |
| 2026-05-09 15:39 | 40.95247 | 29.48682 | 3126 ft | 175 kts | 244° |
| 2026-05-09 15:39 | 40.94720 | 29.47243 | 2853 ft | 173 kts | 244° |
| 2026-05-09 15:39 | 40.94198 | 29.45817 | 2577 ft | 172 kts | 244° |
| 2026-05-09 15:39 | 40.93680 | 29.44404 | 2314 ft | 169 kts | 244° |
| 2026-05-09 15:40 | 40.93180 | 29.43041 | 2050 ft | 160 kts | 244° |
| 2026-05-09 15:40 | 40.92721 | 29.41790 | 1843 ft | 137 kts | 244° |
| 2026-05-09 15:40 | 40.92314 | 29.40680 | 1620 ft | 133 kts | 244° |
| 2026-05-09 15:40 | 40.91910 | 29.39579 | 1408 ft | 133 kts | 244° |
| 2026-05-09 15:41 | 40.91505 | 29.38482 | 1203 ft | 132 kts | 244° |
| 2026-05-09 15:41 | 40.91104 | 29.37395 | 1010 ft | 130 kts | 244° |
| 2026-05-09 15:41 | 40.90715 | 29.36325 | 791 ft | 129 kts | 245° |
| 2026-05-09 15:41 | 40.90326 | 29.35264 | 595 ft | 129 kts | 246° |
| 2026-05-09 15:42 | 40.89938 | 29.34200 | 399 ft | 128 kts | 245° |
| 2026-05-09 15:42 | 40.89563 | 29.33180 | 298 ft | 112 kts | 244° |
| 2026-05-09 15:42 | 40.89322 | 29.32526 | 309 ft | 50 kts | 244° |
| 2026-05-09 15:42 | 40.89183 | 29.32143 | 307 ft | 24 kts | 245° |
| 2026-05-09 15:43 | 40.89126 | 29.31923 | 307 ft | 27 kts | 261° |
| 2026-05-09 15:43 | 40.89129 | 29.31723 | 306 ft | 14 kts | 271° |
| 2026-05-09 15:43 | 40.89133 | 29.31606 | 306 ft | 13 kts | 274° |
| 2026-05-09 15:43 | 40.89139 | 29.31510 | 306 ft | 10 kts | 275° |
| 2026-05-09 15:44 | 40.89174 | 29.31435 | 306 ft | 11 kts | 330° |
| 2026-05-09 15:44 | 40.89235 | 29.31449 | 308 ft | 11 kts | 49° |
| 2026-05-09 15:44 | 40.89300 | 29.31460 | 308 ft | 7 kts | 334° |
| 2026-05-09 15:44 | 40.89358 | 29.31427 | 309 ft | 11 kts | 334° |
| 2026-05-09 15:45 | 40.89444 | 29.31373 | 310 ft | 16 kts | 333° |
| 2026-05-09 15:45 | 40.89552 | 29.31302 | 314 ft | 19 kts | 334° |
| 2026-05-09 15:45 | 40.89654 | 29.31236 | 316 ft | 12 kts | 334° |
| 2026-05-09 15:45 | 40.89736 | 29.31180 | 316 ft | 15 kts | 321° |
| 2026-05-09 15:46 | 40.89795 | 29.31120 | 316 ft | 8 kts | 332° |
| 2026-05-09 15:46 | 40.89799 | 29.31117 | 316 ft | 0 kts | 332° |
| 2026-05-09 15:47 | 40.89813 | 29.31107 | 316 ft | 4 kts | 333° |
| 2026-05-09 15:47 | 40.89849 | 29.31085 | 316 ft | 7 kts | 335° |
| 2026-05-09 15:47 | 40.89908 | 29.31058 | 316 ft | 10 kts | 344° |
| 2026-05-09 15:48 | 40.89985 | 29.31018 | 316 ft | 13 kts | 334° |
| 2026-05-09 15:48 | 40.90073 | 29.30977 | 316 ft | 13 kts | 14° |
| 2026-05-09 15:48 | 40.90125 | 29.31080 | 316 ft | 15 kts | 63° |
| 2026-05-09 15:48 | 40.90173 | 29.31211 | 316 ft | 17 kts | 64° |
| 2026-05-09 15:49 | 40.90227 | 29.31363 | 315 ft | 19 kts | 64° |
| 2026-05-09 15:49 | 40.90269 | 29.31473 | 315 ft | 7 kts | 57° |
| 2026-05-09 15:49 | 40.90322 | 29.31493 | 316 ft | 10 kts | 339° |
| 2026-05-09 15:49 | 40.90392 | 29.31451 | 315 ft | 5 kts | 335° |
| 2026-05-09 15:50 | 40.90433 | 29.31435 | 316 ft | 8 kts | 12° |
| 2026-05-09 15:50 | 40.90473 | 29.31501 | 316 ft | 11 kts | 63° |
| 2026-05-09 15:50 | 40.90499 | 29.31571 | 316 ft | 8 kts | 64° |
| 2026-05-09 15:50 | 40.90528 | 29.31651 | 316 ft | 11 kts | 65° |
| 2026-05-09 15:51 | 40.90551 | 29.31707 | 316 ft | 5 kts | 35° |
| 2026-05-09 15:51 | 40.90584 | 29.31701 | 315 ft | 1 kts | 332° |
| 2026-05-09 15:51 | 40.90601 | 29.31690 | 316 ft | 4 kts | 336° |
| 2026-05-09 15:51 | 40.90618 | 29.31680 | 316 ft | 3 kts | 335° |
| 2026-05-09 15:52 | 40.90639 | 29.31667 | 316 ft | 1 kts | 334° |
| 2026-05-09 15:52 | 40.90641 | 29.31666 | 316 ft | 0 kts | 334° |